createdAt,value
2016-06-20T00:00:40.384Z,1016.52
2016-06-20T00:01:40.434Z,1016.54
2016-06-20T00:02:40.469Z,1016.5
2016-06-20T00:03:40.503Z,1016.42
2016-06-20T00:04:40.537Z,1016.45
2016-06-20T00:05:40.573Z,1016.44
2016-06-20T00:06:40.607Z,1016.39
2016-06-20T00:07:40.642Z,1016.41
2016-06-20T00:08:40.676Z,1016.47
2016-06-20T00:09:40.712Z,1016.44
2016-06-20T00:10:40.746Z,1016.41
2016-06-20T00:11:40.781Z,1016.43
2016-06-20T00:12:40.815Z,1016.4
2016-06-20T00:13:40.850Z,1016.37
2016-06-20T00:14:40.885Z,1016.36
2016-06-20T00:15:40.920Z,1016.36
2016-06-20T00:16:40.954Z,1016.39
2016-06-20T00:17:40.989Z,1016.36
2016-06-20T00:18:41.024Z,1016.31
2016-06-20T00:19:41.059Z,1016.35
2016-06-20T00:20:41.093Z,1016.35
2016-06-20T00:21:41.128Z,1016.33
2016-06-20T00:22:41.163Z,1016.35
2016-06-20T00:23:41.197Z,1016.34
2016-06-20T00:24:41.232Z,1016.35
2016-06-20T00:25:41.267Z,1016.34
2016-06-20T00:26:41.316Z,1016.35
2016-06-20T00:27:41.337Z,1016.34
2016-06-20T00:28:41.371Z,1016.37
2016-06-20T00:29:41.406Z,1016.36
2016-06-20T00:30:41.440Z,1016.36
2016-06-20T00:31:41.475Z,1016.37
2016-06-20T00:32:41.510Z,1016.39
2016-06-20T00:33:41.545Z,1016.37
2016-06-20T00:34:41.579Z,1016.35
2016-06-20T00:35:41.614Z,1016.36
2016-06-20T00:36:41.649Z,1016.38
2016-06-20T00:37:41.684Z,1016.31
2016-06-20T00:38:41.718Z,1016.31
2016-06-20T00:39:41.753Z,1016.33
2016-06-20T00:40:41.787Z,1016.31
2016-06-20T00:41:41.837Z,1016.29
2016-06-20T00:42:41.872Z,1016.28
2016-06-20T00:43:41.892Z,1016.3
2016-06-20T00:44:41.926Z,1016.31
2016-06-20T00:45:41.962Z,1016.33
2016-06-20T00:46:41.996Z,1016.29
2016-06-20T00:47:42.031Z,1016.29
2016-06-20T00:48:42.065Z,1016.33
2016-06-20T00:49:42.101Z,1016.3
2016-06-20T00:50:42.134Z,1016.34
2016-06-20T00:51:42.169Z,1016.29
2016-06-20T00:52:42.203Z,1016.33
2016-06-20T00:53:42.239Z,1016.33
2016-06-20T00:54:42.273Z,1016.35
2016-06-20T00:55:42.308Z,1016.35
2016-06-20T00:56:42.342Z,1016.34
2016-06-20T00:57:42.378Z,1016.31
2016-06-20T00:58:42.412Z,1016.31
2016-06-20T00:59:42.447Z,1016.34
2016-06-20T01:00:42.482Z,1016.3
2016-06-20T01:01:42.517Z,1016.31
2016-06-20T01:02:42.551Z,1016.3
2016-06-20T01:03:42.586Z,1016.3
2016-06-20T01:04:42.620Z,1016.25
2016-06-20T01:05:42.656Z,1016.22
2016-06-20T01:06:42.690Z,1016.23
2016-06-20T01:07:42.725Z,1016.26
2016-06-20T01:08:42.759Z,1016.22
2016-06-20T01:09:42.809Z,1016.22
2016-06-20T01:10:42.844Z,1016.19
2016-06-20T01:11:42.864Z,1016.21
2016-06-20T01:12:42.914Z,1016.19
2016-06-20T01:13:42.948Z,1016.23
2016-06-20T01:14:42.983Z,1016.24
2016-06-20T01:15:43.019Z,1016.24
2016-06-20T01:16:43.037Z,1016.25
2016-06-20T01:17:43.087Z,1016.25
2016-06-20T01:18:43.121Z,1016.3
2016-06-20T01:19:43.141Z,1016.26
2016-06-20T01:20:43.192Z,1016.26
2016-06-20T01:21:43.211Z,1016.29
2016-06-20T01:22:43.260Z,1016.23
2016-06-20T01:23:43.296Z,1016.23
2016-06-20T01:24:43.315Z,1016.25
2016-06-20T01:25:43.365Z,1016.22
2016-06-20T01:26:43.384Z,1016.21
2016-06-20T01:27:43.435Z,1016.23
2016-06-20T01:28:43.470Z,1016.24
2016-06-20T01:29:43.489Z,1016.2
2016-06-20T01:30:43.538Z,1016.16
2016-06-20T01:31:43.558Z,1016.19
2016-06-20T01:32:43.609Z,1016.17
2016-06-20T01:33:43.628Z,1016.17
2016-06-20T01:34:43.677Z,1016.18
2016-06-20T01:35:43.696Z,1016.17
2016-06-20T01:36:43.731Z,1016.17
2016-06-20T01:37:43.767Z,1016.17
2016-06-20T01:38:43.801Z,1016.16
2016-06-20T01:39:43.836Z,1016.18
2016-06-20T01:40:43.870Z,1016.19
2016-06-20T01:41:43.920Z,1016.18
2016-06-20T01:42:43.955Z,1016.18
2016-06-20T01:43:43.990Z,1016.14
2016-06-20T01:44:44.009Z,1016.17
2016-06-20T01:45:44.059Z,1016.11
2016-06-20T01:46:44.093Z,1016.14
2016-06-20T01:47:44.113Z,1016.1
2016-06-20T01:48:44.147Z,1016.09
2016-06-20T01:49:44.183Z,1016.1
2016-06-20T01:50:44.232Z,1016.11
2016-06-20T01:51:44.252Z,1016.12
2016-06-20T01:52:44.286Z,1016.11
2016-06-20T01:53:44.322Z,1016.11
2016-06-20T01:54:44.357Z,1016.11
2016-06-20T01:55:44.391Z,1016.14
2016-06-20T01:56:44.425Z,1016.14
2016-06-20T01:57:44.461Z,1016.15
2016-06-20T01:58:44.495Z,1016.11
2016-06-20T01:59:44.530Z,1016.12
2016-06-20T02:00:44.564Z,1016.1
2016-06-20T02:01:44.599Z,1016.08
2016-06-20T02:02:44.634Z,1016.05
2016-06-20T02:03:44.668Z,1016.03
2016-06-20T02:04:44.702Z,1016.04
2016-06-20T02:05:44.738Z,1016.06
2016-06-20T02:06:44.773Z,1016.04
2016-06-20T02:07:44.807Z,1016.03
2016-06-20T02:08:44.842Z,1016.04
2016-06-20T02:09:44.877Z,1016.07
2016-06-20T02:10:44.912Z,1016.05
2016-06-20T02:11:44.946Z,1016.04
2016-06-20T02:12:44.981Z,1016.08
2016-06-20T02:13:45.016Z,1016.01
2016-06-20T02:14:45.051Z,1016.05
2016-06-20T02:15:45.085Z,1016
2016-06-20T02:16:45.119Z,1015.98
2016-06-20T02:17:45.155Z,1015.96
2016-06-20T02:18:45.189Z,1015.97
2016-06-20T02:19:45.223Z,1015.94
2016-06-20T02:20:45.258Z,1015.94
2016-06-20T02:21:45.293Z,1015.92
2016-06-20T02:22:45.328Z,1015.9
2016-06-20T02:23:45.363Z,1015.92
2016-06-20T02:24:45.397Z,1015.84
2016-06-20T02:25:45.432Z,1015.79
2016-06-20T02:26:45.467Z,1015.8
2016-06-20T02:27:45.501Z,1015.75
2016-06-20T02:28:45.536Z,1015.77
2016-06-20T02:29:45.572Z,1015.71
2016-06-20T02:30:45.606Z,1015.74
2016-06-20T02:31:45.640Z,1015.74
2016-06-20T02:32:45.675Z,1015.71
2016-06-20T02:33:45.710Z,1015.72
2016-06-20T02:34:45.744Z,1015.73
2016-06-20T02:35:45.779Z,1015.72
2016-06-20T02:36:45.798Z,1015.72
2016-06-20T02:37:45.849Z,1015.71
2016-06-20T02:38:45.883Z,1015.73
2016-06-20T02:39:45.901Z,1015.71
2016-06-20T02:40:45.937Z,1015.74
2016-06-20T02:41:45.988Z,1015.72
2016-06-20T02:42:46.006Z,1015.7
2016-06-20T02:43:46.041Z,1015.67
2016-06-20T02:44:46.076Z,1015.65
2016-06-20T02:45:46.111Z,1015.65
2016-06-20T02:46:46.145Z,1015.6
2016-06-20T02:47:46.179Z,1015.61
2016-06-20T02:48:46.215Z,1015.62
2016-06-20T02:49:46.250Z,1015.63
2016-06-20T02:50:46.283Z,1015.62
2016-06-20T02:51:46.318Z,1015.63
2016-06-20T02:52:46.354Z,1015.62
2016-06-20T02:53:46.388Z,1015.58
2016-06-20T02:54:46.422Z,1015.61
2016-06-20T02:55:46.457Z,1015.57
2016-06-20T02:56:46.497Z,1015.57
2016-06-20T02:57:46.540Z,1015.53
2016-06-20T02:58:46.583Z,1015.52
2016-06-20T02:59:46.626Z,1015.54
2016-06-20T03:00:46.669Z,1015.51
2016-06-20T03:01:46.710Z,1015.42
2016-06-20T03:02:46.747Z,1015.42
2016-06-20T03:03:46.785Z,1015.41
2016-06-20T03:04:46.824Z,1015.42
2016-06-20T03:05:46.861Z,1015.36
2016-06-20T03:06:46.898Z,1015.35
2016-06-20T03:07:46.933Z,1015.35
2016-06-20T03:08:46.953Z,1015.32
2016-06-20T03:09:47.005Z,1015.33
2016-06-20T03:10:47.041Z,1015.34
2016-06-20T03:11:47.076Z,1015.34
2016-06-20T03:12:47.111Z,1015.34
2016-06-20T03:13:47.147Z,1015.35
2016-06-20T03:14:47.182Z,1015.41
2016-06-20T03:15:47.201Z,1015.39
2016-06-20T03:16:47.252Z,1015.38
2016-06-20T03:17:47.271Z,1015.38
2016-06-20T03:18:47.307Z,1015.32
2016-06-20T03:19:47.341Z,1015.31
2016-06-20T03:20:47.377Z,1015.33
2016-06-20T03:21:47.411Z,1015.28
2016-06-20T03:22:47.447Z,1015.31
2016-06-20T03:23:47.481Z,1015.32
2016-06-20T03:24:47.516Z,1015.27
2016-06-20T03:25:47.550Z,1015.27
2016-06-20T03:26:47.586Z,1015.25
2016-06-20T03:27:47.635Z,1015.27
2016-06-20T03:28:47.654Z,1015.29
2016-06-20T03:29:47.689Z,1015.32
2016-06-20T03:30:47.724Z,1015.33
2016-06-20T03:31:47.758Z,1015.37
2016-06-20T03:32:47.793Z,1015.39
2016-06-20T03:33:47.844Z,1015.42
2016-06-20T03:34:47.863Z,1015.42
2016-06-20T03:35:47.897Z,1015.43
2016-06-20T03:36:47.932Z,1015.43
2016-06-20T03:37:47.966Z,1015.37
2016-06-20T03:38:48.002Z,1015.35
2016-06-20T03:39:48.037Z,1015.32
2016-06-20T03:40:48.071Z,1015.29
2016-06-20T03:41:48.106Z,1015.27
2016-06-20T03:42:48.141Z,1015.26
2016-06-20T03:43:48.175Z,1015.26
2016-06-20T03:44:48.210Z,1015.21
2016-06-20T03:45:48.230Z,1015.21
2016-06-20T03:46:48.279Z,1015.19
2016-06-20T03:47:48.298Z,1015.15
2016-06-20T03:48:48.332Z,1015.17
2016-06-20T03:49:48.383Z,1015.16
2016-06-20T03:50:48.402Z,1015.13
2016-06-20T03:51:48.437Z,1015.12
2016-06-20T03:52:48.471Z,1015.1
2016-06-20T03:53:48.507Z,1015.09
2016-06-20T03:54:48.541Z,1015.06
2016-06-20T03:55:48.576Z,1015.04
2016-06-20T03:56:48.626Z,1015.1
2016-06-20T03:57:48.646Z,1015.06
2016-06-20T03:58:48.696Z,1015.03
2016-06-20T03:59:48.715Z,1015.06
2016-06-20T04:00:48.749Z,1014.98
2016-06-20T04:01:48.784Z,1015.01
2016-06-20T04:02:48.819Z,1014.96
2016-06-20T04:03:48.853Z,1014.91
2016-06-20T04:04:48.888Z,1014.9
2016-06-20T04:05:48.923Z,1014.9
2016-06-20T04:06:48.957Z,1014.87
2016-06-20T04:07:48.992Z,1014.85
2016-06-20T04:08:49.027Z,1014.84
2016-06-20T04:09:49.062Z,1014.81
2016-06-20T04:10:49.097Z,1014.77
2016-06-20T04:11:49.131Z,1014.74
2016-06-20T04:12:49.165Z,1014.73
2016-06-20T04:13:49.201Z,1014.68
2016-06-20T04:14:49.236Z,1014.71
2016-06-20T04:15:49.270Z,1014.71
2016-06-20T04:16:49.305Z,1014.72
2016-06-20T04:17:49.340Z,1014.71
2016-06-20T04:18:49.374Z,1014.72
2016-06-20T04:19:49.409Z,1014.73
2016-06-20T04:20:49.444Z,1014.71
2016-06-20T04:21:49.478Z,1014.74
2016-06-20T04:22:49.513Z,1014.73
2016-06-20T04:23:49.547Z,1014.72
2016-06-20T04:24:49.582Z,1014.72
2016-06-20T04:25:49.617Z,1014.72
2016-06-20T04:26:49.652Z,1014.69
2016-06-20T04:27:49.686Z,1014.66
2016-06-20T04:28:49.721Z,1014.65
2016-06-20T04:29:49.756Z,1014.62
2016-06-20T04:30:49.791Z,1014.66
2016-06-20T04:31:49.826Z,1014.62
2016-06-20T04:32:49.860Z,1014.61
2016-06-20T04:33:49.895Z,1014.58
2016-06-20T04:34:49.929Z,1014.54
2016-06-20T04:35:49.964Z,1014.52
2016-06-20T04:36:49.998Z,1014.52
2016-06-20T04:37:50.034Z,1014.47
2016-06-20T04:38:50.068Z,1014.54
2016-06-20T04:39:50.103Z,1014.51
2016-06-20T04:40:50.137Z,1014.53
2016-06-20T04:41:50.173Z,1014.55
2016-06-20T04:42:50.207Z,1014.57
2016-06-20T04:43:50.242Z,1014.57
2016-06-20T04:44:50.276Z,1014.57
2016-06-20T04:45:50.312Z,1014.54
2016-06-20T04:46:50.346Z,1014.57
2016-06-20T04:47:50.381Z,1014.57
2016-06-20T04:48:50.415Z,1014.55
2016-06-20T04:49:50.465Z,1014.53
2016-06-20T04:50:50.501Z,1014.55
2016-06-20T04:51:50.536Z,1014.54
2016-06-20T04:52:50.569Z,1014.52
2016-06-20T04:53:50.604Z,1014.5
2016-06-20T04:54:50.640Z,1014.52
2016-06-20T04:55:50.674Z,1014.59
2016-06-20T04:56:50.708Z,1014.57
2016-06-20T04:57:50.743Z,1014.57
2016-06-20T04:58:50.793Z,1014.57
2016-06-20T04:59:50.828Z,1014.56
2016-06-20T05:00:50.864Z,1014.55
2016-06-20T05:01:50.914Z,1014.49
2016-06-20T05:02:50.933Z,1014.46
2016-06-20T05:03:50.967Z,1014.52
2016-06-20T05:04:51.017Z,1014.47
2016-06-20T05:05:51.053Z,1014.49
2016-06-20T05:06:51.088Z,1014.44
2016-06-20T05:07:51.122Z,1014.48
2016-06-20T05:08:51.172Z,1014.5
2016-06-20T05:09:51.207Z,1014.53
2016-06-20T05:10:51.241Z,1014.58
2016-06-20T05:11:51.276Z,1014.56
2016-06-20T05:12:51.327Z,1014.57
2016-06-20T05:13:51.361Z,1014.62
2016-06-20T05:14:51.396Z,1014.62
2016-06-20T05:15:51.430Z,1014.63
2016-06-20T05:16:51.481Z,1014.63
2016-06-20T05:17:51.516Z,1014.61
2016-06-20T05:18:51.551Z,1014.6
2016-06-20T05:19:51.601Z,1014.61
2016-06-20T05:20:51.636Z,1014.61
2016-06-20T05:21:51.670Z,1014.6
2016-06-20T05:22:51.704Z,1014.6
2016-06-20T05:23:51.755Z,1014.57
2016-06-20T05:24:51.789Z,1014.56
2016-06-20T05:25:51.825Z,1014.56
2016-06-20T05:26:51.875Z,1014.54
2016-06-20T05:27:51.910Z,1014.54
2016-06-20T05:28:51.944Z,1014.54
2016-06-20T05:29:51.995Z,1014.53
2016-06-20T05:30:52.029Z,1014.52
2016-06-20T05:31:52.080Z,1014.51
2016-06-20T05:32:52.114Z,1014.51
2016-06-20T05:33:52.149Z,1014.48
2016-06-20T05:34:52.231Z,1014.47
2016-06-20T05:35:52.235Z,1014.47
2016-06-20T05:36:52.269Z,1014.47
2016-06-20T05:37:52.304Z,1014.44
2016-06-20T05:38:52.354Z,1014.43
2016-06-20T05:39:52.388Z,1014.37
2016-06-20T05:40:52.439Z,1014.39
2016-06-20T05:41:52.473Z,1014.42
2016-06-20T05:42:52.509Z,1014.42
2016-06-20T05:43:52.543Z,1014.42
2016-06-20T05:44:52.593Z,1014.44
2016-06-20T05:45:52.628Z,1014.45
2016-06-20T05:46:52.663Z,1014.51
2016-06-20T05:47:52.713Z,1014.45
2016-06-20T05:48:52.747Z,1014.45
2016-06-20T05:49:52.783Z,1014.49
2016-06-20T05:50:52.833Z,1014.44
2016-06-20T05:51:52.868Z,1014.41
2016-06-20T05:52:52.918Z,1014.44
2016-06-20T05:53:52.953Z,1014.41
2016-06-20T05:54:52.987Z,1014.41
2016-06-20T05:55:53.038Z,1014.43
2016-06-20T05:56:53.072Z,1014.41
2016-06-20T05:57:53.122Z,1014.42
2016-06-20T05:58:53.157Z,1014.48
2016-06-20T05:59:53.192Z,1014.46
2016-06-20T06:00:53.243Z,1014.42
2016-06-20T06:01:53.278Z,1014.46
2016-06-20T06:02:53.328Z,1014.45
2016-06-20T06:03:53.362Z,1014.46
2016-06-20T06:04:53.397Z,1014.41
2016-06-20T06:05:53.447Z,1014.43
2016-06-20T06:06:53.482Z,1014.41
2016-06-20T06:07:53.532Z,1014.31
2016-06-20T06:08:53.567Z,1014.33
2016-06-20T06:09:53.602Z,1014.27
2016-06-20T06:10:53.652Z,1014.29
2016-06-20T06:11:53.687Z,1014.29
2016-06-20T06:12:53.721Z,1014.24
2016-06-20T06:13:53.756Z,1014.23
2016-06-20T06:14:53.806Z,1014.21
2016-06-20T06:15:53.857Z,1014.22
2016-06-20T06:16:53.877Z,1014.2
2016-06-20T06:17:53.926Z,1014.17
2016-06-20T06:18:53.962Z,1014.17
2016-06-20T06:19:53.996Z,1014.19
2016-06-20T06:20:54.030Z,1014.11
2016-06-20T06:21:54.081Z,1014.16
2016-06-20T06:22:54.115Z,1014.11
2016-06-20T06:23:54.151Z,1014.15
2016-06-20T06:24:54.185Z,1014.14
2016-06-20T06:25:54.235Z,1014.18
2016-06-20T06:26:54.270Z,1014.15
2016-06-20T06:27:54.305Z,1014.12
2016-06-20T06:28:54.480Z,1014.08
2016-06-20T06:29:54.389Z,1014.06
2016-06-20T06:30:54.425Z,1014.09
2016-06-20T06:31:54.475Z,1014.02
2016-06-20T06:32:54.494Z,1014.02
2016-06-20T06:33:54.544Z,1013.98
2016-06-20T06:34:54.578Z,1013.97
2016-06-20T06:35:54.614Z,1013.96
2016-06-20T06:36:54.648Z,1013.94
2016-06-20T06:37:54.683Z,1013.96
2016-06-20T06:38:54.733Z,1013.94
2016-06-20T06:39:54.784Z,1013.94
2016-06-20T06:40:54.802Z,1013.94
2016-06-20T06:41:54.837Z,1013.89
2016-06-20T06:42:54.872Z,1013.9
2016-06-20T06:43:54.922Z,1013.89
2016-06-20T06:44:54.958Z,1013.89
2016-06-20T06:45:54.992Z,1013.83
2016-06-20T06:46:55.027Z,1013.88
2016-06-20T06:47:55.062Z,1013.84
2016-06-20T06:48:55.112Z,1013.86
2016-06-20T06:49:55.147Z,1013.87
2016-06-20T06:50:55.181Z,1013.87
2016-06-20T06:51:55.216Z,1013.82
2016-06-20T06:52:55.251Z,1013.83
2016-06-20T06:53:55.301Z,1013.87
2016-06-20T06:54:55.336Z,1013.81
2016-06-20T06:55:55.370Z,1013.8
2016-06-20T06:56:55.405Z,1013.87
2016-06-20T06:57:55.455Z,1013.83
2016-06-20T06:58:55.490Z,1013.83
2016-06-20T06:59:55.525Z,1013.81
2016-06-20T07:00:55.560Z,1013.81
2016-06-20T07:01:55.595Z,1013.76
2016-06-20T07:02:55.644Z,1013.79
2016-06-20T07:03:55.679Z,1013.79
2016-06-20T07:04:55.715Z,1013.8
2016-06-20T07:05:55.749Z,1013.83
2016-06-20T07:06:55.799Z,1013.78
2016-06-20T07:07:55.834Z,1013.86
2016-06-20T07:08:55.869Z,1013.83
2016-06-20T07:09:55.903Z,1013.78
2016-06-20T07:10:55.938Z,1013.81
2016-06-20T07:11:55.973Z,1013.79
2016-06-20T07:12:56.023Z,1013.75
2016-06-20T07:13:56.058Z,1013.8
2016-06-20T07:14:56.092Z,1013.77
2016-06-20T07:15:56.127Z,1013.72
2016-06-20T07:16:56.162Z,1013.74
2016-06-20T07:17:56.213Z,1013.74
2016-06-20T07:18:56.247Z,1013.75
2016-06-20T07:19:56.281Z,1013.8
2016-06-20T07:20:56.316Z,1013.73
2016-06-20T07:21:56.351Z,1013.77
2016-06-20T07:22:56.402Z,1013.78
2016-06-20T07:23:56.437Z,1013.74
2016-06-20T07:24:56.470Z,1013.74
2016-06-20T07:25:56.505Z,1013.68
2016-06-20T07:26:56.555Z,1013.64
2016-06-20T07:27:56.590Z,1013.69
2016-06-20T07:28:56.626Z,1013.66
2016-06-20T07:29:56.666Z,1013.62
2016-06-20T07:30:56.708Z,1013.63
2016-06-20T07:31:56.766Z,1013.59
2016-06-20T07:32:56.808Z,1013.53
2016-06-20T07:33:56.850Z,1013.51
2016-06-20T07:34:56.888Z,1013.51
2016-06-20T07:35:56.941Z,1013.5
2016-06-20T07:36:56.977Z,1013.51
2016-06-20T07:37:57.014Z,1013.51
2016-06-20T07:38:57.051Z,1013.47
2016-06-20T07:39:57.088Z,1013.47
2016-06-20T07:40:57.140Z,1013.46
2016-06-20T07:41:57.175Z,1013.42
2016-06-20T07:42:57.210Z,1013.41
2016-06-20T07:43:57.262Z,1013.45
2016-06-20T07:44:57.297Z,1013.46
2016-06-20T07:45:57.332Z,1013.45
2016-06-20T07:46:57.367Z,1013.45
2016-06-20T07:47:57.419Z,1013.47
2016-06-20T07:48:57.453Z,1013.46
2016-06-20T07:49:57.488Z,1013.48
2016-06-20T07:50:57.539Z,1013.46
2016-06-20T07:51:57.572Z,1013.41
2016-06-20T07:52:57.624Z,1013.31
2016-06-20T07:53:57.657Z,1013.32
2016-06-20T07:54:57.693Z,1013.28
2016-06-20T07:55:57.728Z,1013.26
2016-06-20T07:56:57.778Z,1013.22
2016-06-20T07:57:57.813Z,1013.17
2016-06-20T07:58:57.847Z,1013.19
2016-06-20T07:59:57.898Z,1013.17
2016-06-20T08:00:57.932Z,1013.11
2016-06-20T08:01:57.982Z,1013.09
2016-06-20T08:02:58.017Z,1013.05
2016-06-20T08:03:58.067Z,1013.04
2016-06-20T08:04:58.212Z,1013.04
2016-06-20T08:05:58.153Z,1013.04
2016-06-20T08:06:58.203Z,1013.01
2016-06-20T08:07:58.238Z,1013.07
2016-06-20T08:08:58.288Z,1013
2016-06-20T08:09:58.323Z,1013.07
2016-06-20T08:10:58.374Z,1013.06
2016-06-20T08:11:58.423Z,1013.01
2016-06-20T08:12:58.458Z,1012.97
2016-06-20T08:13:58.509Z,1013.03
2016-06-20T08:14:58.558Z,1013.05
2016-06-20T08:15:58.594Z,1013.07
2016-06-20T08:16:58.645Z,1013.09
2016-06-20T08:17:58.679Z,1013.13
2016-06-20T08:18:58.729Z,1013.13
2016-06-20T08:19:58.780Z,1013.08
2016-06-20T08:20:58.829Z,1013.07
2016-06-20T08:21:58.864Z,1013.08
2016-06-20T08:22:58.915Z,1013.03
2016-06-20T08:23:58.964Z,1013.01
2016-06-20T08:24:59.000Z,1013.04
2016-06-20T08:25:59.050Z,1013.04
2016-06-20T08:26:59.100Z,1013.01
2016-06-20T08:27:59.166Z,1013
2016-06-20T08:28:59.185Z,1012.98
2016-06-20T08:29:59.235Z,1013.02
2016-06-20T08:30:59.271Z,1013.02
2016-06-20T08:31:59.321Z,1012.96
2016-06-20T08:32:59.370Z,1012.92
2016-06-20T08:33:59.407Z,1012.89
2016-06-20T08:34:59.457Z,1012.92
2016-06-20T08:35:59.491Z,1012.89
2016-06-20T08:36:59.541Z,1012.93
2016-06-20T08:37:59.592Z,1012.96
2016-06-20T08:38:59.626Z,1012.92
2016-06-20T08:39:59.677Z,1012.9
2016-06-20T08:40:59.728Z,1012.91
2016-06-20T08:41:59.761Z,1012.91
2016-06-20T08:42:59.812Z,1012.89
2016-06-20T08:43:59.847Z,1012.86
2016-06-20T08:44:59.897Z,1012.85
2016-06-20T08:45:59.948Z,1012.84
2016-06-20T08:46:59.982Z,1012.82
2016-06-20T08:48:00.032Z,1012.81
2016-06-20T08:49:00.067Z,1012.81
2016-06-20T08:50:00.118Z,1012.78
2016-06-20T08:51:00.168Z,1012.77
2016-06-20T08:52:00.203Z,1012.72
2016-06-20T08:53:00.253Z,1012.77
2016-06-20T08:54:00.303Z,1012.8
2016-06-20T08:55:00.338Z,1012.74
2016-06-20T08:56:00.373Z,1012.74
2016-06-20T08:57:00.423Z,1012.73
2016-06-20T08:58:00.457Z,1012.76
2016-06-20T08:59:00.508Z,1012.81
2016-06-20T09:00:00.558Z,1012.7
2016-06-20T09:01:00.592Z,1012.75
2016-06-20T09:02:00.643Z,1012.72
2016-06-20T09:03:00.679Z,1012.69
2016-06-20T09:04:00.713Z,1012.65
2016-06-20T09:05:00.764Z,1012.65
2016-06-20T09:06:00.813Z,1012.63
2016-06-20T09:07:00.849Z,1012.62
2016-06-20T09:08:00.899Z,1012.61
2016-06-20T09:09:00.933Z,1012.59
2016-06-20T09:10:00.984Z,1012.59
2016-06-20T09:11:01.035Z,1012.63
2016-06-20T09:12:01.085Z,1012.62
2016-06-20T09:13:01.104Z,1012.63
2016-06-20T09:14:01.153Z,1012.62
2016-06-20T09:15:01.188Z,1012.63
2016-06-20T09:16:01.239Z,1012.55
2016-06-20T09:17:01.273Z,1012.61
2016-06-20T09:18:01.323Z,1012.6
2016-06-20T09:19:01.359Z,1012.62
2016-06-20T09:20:01.408Z,1012.54
2016-06-20T09:21:01.459Z,1012.49
2016-06-20T09:22:01.494Z,1012.55
2016-06-20T09:23:01.544Z,1012.53
2016-06-20T09:24:01.766Z,1012.51
2016-06-20T09:25:01.629Z,1012.53
2016-06-20T09:26:01.664Z,1012.43
2016-06-20T09:27:01.715Z,1012.45
2016-06-20T09:28:01.749Z,1012.42
2016-06-20T09:29:01.783Z,1012.42
2016-06-20T09:30:01.834Z,1012.4
2016-06-20T09:31:01.884Z,1012.37
2016-06-20T09:32:01.919Z,1012.34
2016-06-20T09:33:01.970Z,1012.34
2016-06-20T09:34:02.003Z,1012.35
2016-06-20T09:35:02.054Z,1012.29
2016-06-20T09:36:02.089Z,1012.29
2016-06-20T09:37:02.139Z,1012.27
2016-06-20T09:38:02.174Z,1012.27
2016-06-20T09:39:02.224Z,1012.17
2016-06-20T09:40:02.274Z,1012.29
2016-06-20T09:41:02.310Z,1012.26
2016-06-20T09:42:02.359Z,1012.25
2016-06-20T09:43:02.395Z,1012.26
2016-06-20T09:44:02.446Z,1012.27
2016-06-20T09:45:02.480Z,1012.2
2016-06-20T09:46:02.531Z,1012.22
2016-06-20T09:47:02.565Z,1012.2
2016-06-20T09:48:02.616Z,1012.21
2016-06-20T09:49:02.666Z,1012.17
2016-06-20T09:50:02.700Z,1012.17
2016-06-20T09:51:02.750Z,1012.17
2016-06-20T09:52:02.785Z,1012.21
2016-06-20T09:53:02.835Z,1012.21
2016-06-20T09:54:02.870Z,1012.15
2016-06-20T09:55:02.920Z,1012.23
2016-06-20T09:56:02.955Z,1012.2
2016-06-20T09:57:03.005Z,1012.17
2016-06-20T09:58:03.040Z,1012.19
2016-06-20T09:59:03.090Z,1012.27
2016-06-20T10:00:03.141Z,1012.27
2016-06-20T10:01:03.191Z,1012.24
2016-06-20T10:02:03.210Z,1012.31
2016-06-20T10:03:03.261Z,1012.23
2016-06-20T10:04:03.310Z,1012.26
2016-06-20T10:05:03.346Z,1012.24
2016-06-20T10:06:03.397Z,1012.26
2016-06-20T10:07:03.431Z,1012.24
2016-06-20T10:08:03.466Z,1012.22
2016-06-20T10:09:03.532Z,1012.22
2016-06-20T10:10:03.567Z,1012.21
2016-06-20T10:11:03.601Z,1012.2
2016-06-20T10:12:03.636Z,1012.24
2016-06-20T10:13:03.686Z,1012.19
2016-06-20T10:14:03.736Z,1012.23
2016-06-20T10:15:03.770Z,1012.17
2016-06-20T10:16:03.822Z,1012.22
2016-06-20T10:17:03.856Z,1012.23
2016-06-20T10:18:03.906Z,1012.25
2016-06-20T10:19:03.942Z,1012.27
2016-06-20T10:20:03.991Z,1012.18
2016-06-20T10:21:04.026Z,1012.14
2016-06-20T10:22:04.077Z,1012.11
2016-06-20T10:23:04.112Z,1012.1
2016-06-20T10:24:04.177Z,1012.11
2016-06-20T10:25:04.196Z,1012.05
2016-06-20T10:26:04.247Z,1012.02
2016-06-20T10:27:04.281Z,1012.02
2016-06-20T10:28:04.331Z,1012.05
2016-06-20T10:29:04.366Z,1012.05
2016-06-20T10:30:04.417Z,1012.01
2016-06-20T10:31:04.451Z,1011.98
2016-06-20T10:32:04.502Z,1012
2016-06-20T10:33:04.552Z,1011.97
2016-06-20T10:34:04.587Z,1012.01
2016-06-20T10:35:04.637Z,1011.96
2016-06-20T10:36:04.672Z,1011.96
2016-06-20T10:37:04.722Z,1011.95
2016-06-20T10:38:04.772Z,1011.93
2016-06-20T10:39:04.807Z,1011.91
2016-06-20T10:40:04.857Z,1011.96
2016-06-20T10:41:04.892Z,1011.9
2016-06-20T10:42:04.942Z,1011.9
2016-06-20T10:43:04.978Z,1011.91
2016-06-20T10:44:05.043Z,1011.86
2016-06-20T10:45:05.077Z,1011.8
2016-06-20T10:46:05.113Z,1011.81
2016-06-20T10:47:05.164Z,1011.85
2016-06-20T10:48:05.213Z,1011.77
2016-06-20T10:49:05.249Z,1011.77
2016-06-20T10:50:05.299Z,1011.82
2016-06-20T10:51:05.334Z,1011.74
2016-06-20T10:52:05.384Z,1011.76
2016-06-20T10:53:05.434Z,1011.75
2016-06-20T10:54:05.469Z,1011.73
2016-06-20T10:55:05.519Z,1011.7
2016-06-20T10:56:05.554Z,1011.65
2016-06-20T10:57:05.619Z,1011.7
2016-06-20T10:58:05.639Z,1011.68
2016-06-20T10:59:05.689Z,1011.66
2016-06-20T11:00:05.723Z,1011.67
2016-06-20T11:01:05.774Z,1011.68
2016-06-20T11:02:05.825Z,1011.67
2016-06-20T11:03:05.859Z,1011.66
2016-06-20T11:04:05.909Z,1011.64
2016-06-20T11:05:05.944Z,1011.61
2016-06-20T11:06:05.979Z,1011.6
2016-06-20T11:07:06.029Z,1011.64
2016-06-20T11:08:06.064Z,1011.62
2016-06-20T11:09:06.114Z,1011.56
2016-06-20T11:10:06.149Z,1011.61
2016-06-20T11:11:06.200Z,1011.62
2016-06-20T11:12:06.234Z,1011.64
2016-06-20T11:13:06.284Z,1011.59
2016-06-20T11:14:06.319Z,1011.59
2016-06-20T11:15:06.369Z,1011.58
2016-06-20T11:16:06.404Z,1011.59
2016-06-20T11:17:06.455Z,1011.6
2016-06-20T11:18:06.489Z,1011.63
2016-06-20T11:19:06.524Z,1011.55
2016-06-20T11:20:06.574Z,1011.56
2016-06-20T11:21:06.687Z,1011.57
2016-06-20T11:22:06.660Z,1011.57
2016-06-20T11:23:06.709Z,1011.56
2016-06-20T11:24:06.745Z,1011.59
2016-06-20T11:25:06.779Z,1011.53
2016-06-20T11:26:06.830Z,1011.55
2016-06-20T11:27:06.864Z,1011.53
2016-06-20T11:28:06.914Z,1011.56
2016-06-20T11:29:06.949Z,1011.52
2016-06-20T11:30:06.999Z,1011.54
2016-06-20T11:31:07.034Z,1011.57
2016-06-20T11:32:07.069Z,1011.51
2016-06-20T11:33:07.118Z,1011.52
2016-06-20T11:34:07.154Z,1011.43
2016-06-20T11:35:07.204Z,1011.48
2016-06-20T11:36:07.239Z,1011.44
2016-06-20T11:37:07.290Z,1011.46
2016-06-20T11:38:07.324Z,1011.42
2016-06-20T11:39:07.374Z,1011.44
2016-06-20T11:40:07.409Z,1011.4
2016-06-20T11:41:07.443Z,1011.38
2016-06-20T11:42:07.494Z,1011.39
2016-06-20T11:43:07.545Z,1011.36
2016-06-20T11:44:07.579Z,1011.33
2016-06-20T11:45:07.614Z,1011.35
2016-06-20T11:46:07.664Z,1011.34
2016-06-20T11:47:07.699Z,1011.34
2016-06-20T11:48:07.750Z,1011.33
2016-06-20T11:49:07.784Z,1011.31
2016-06-20T11:50:07.819Z,1011.32
2016-06-20T11:51:07.869Z,1011.3
2016-06-20T11:52:07.903Z,1011.3
2016-06-20T11:53:07.953Z,1011.24
2016-06-20T11:54:07.988Z,1011.21
2016-06-20T11:55:08.039Z,1011.19
2016-06-20T11:56:08.073Z,1011.21
2016-06-20T11:57:08.109Z,1011.16
2016-06-20T11:58:08.159Z,1011.16
2016-06-20T12:11:24.263Z,1011.14
2016-06-20T12:11:24.701Z,1011.01
2016-06-20T12:11:24.826Z,1011.01
2016-06-20T12:11:45.013Z,1010.98
2016-06-20T12:12:45.050Z,1010.96
2016-06-20T12:13:45.115Z,1010.89
2016-06-20T12:14:45.135Z,1010.96
2016-06-20T12:15:45.186Z,1010.91
2016-06-20T12:16:45.220Z,1010.91
2016-06-20T12:17:45.271Z,1010.92